D/T METAR WX W/SPE G/SPE TEMP DEWP FEEL
20/01/21 18:50 EGVO 201850Z 17024G35KT 9999 -RADZ BKN012 09/07 Q0980 TEMPO 4000 RADZ RMK GRN TEMPO GRN -RA -DZ 27.6mph 40.3mph 9°C 7°C 9.0°C
20/01/21 18:33 EGVO 201833Z 18023G34KT 5000 -RA BKN010 SCT016 BKN020 09/08 Q0981 TEMPO 3000 RADZ RMK GRN TEMPO YLO1 -RA 26.5mph 39.1mph 9°C 8°C 9.4°C
20/01/21 17:50 EGVO 201750Z 18023G34KT 9999 BKN014 BKN022 10/08 Q0982 BECMG 7000 -RA RMK GRN BECMG GRN 26.5mph 39.1mph 10°C 8°C 10.4°C
20/01/21 17:23 EGVO 201723Z 19022G33KT 9999 BKN010 BKN024 10/08 Q0982 NOSIG RMK GRN GRN 25.3mph 38.0mph 10°C 8°C 10.4°C
20/01/21 16:50 EGVO 201650Z 18018KT 5000 -RA OVC007 09/08 Q0983 NOSIG RMK GRN GRN -RA 20.7mph 9°C 8°C 9.4°C
20/01/21 16:29 EGVO 201629Z 18020KT 2500 RADZ OVC007 09/08 Q0983 TEMPO BKN005 RMK YLO1 TEMPO YLO1 RA DZ 23.0mph 9°C 8°C 9.4°C
20/01/21 15:50 EGVO 201550Z 18020G30KT 4000 RA OVC008 09/08 Q0984 BECMG 7000 -RA RMK GRN BECMG GRN RA 23.0mph 34.5mph 9°C 8°C 9.4°C
20/01/21 15:21 EGVO 201521Z 18021KT 7000 -RA BKN009 09/08 Q0984 NOSIG RMK GRN GRN -RA 24.2mph 9°C 8°C 9.4°C
20/01/21 14:50 EGVO 201450Z 19020KT 5000 -RA BKN012 BKN018 BKN022 09/08 Q0985 NOSIG RMK GRN GRN -RA 23.0mph 9°C 8°C 9.4°C
20/01/21 13:50 EGVO 201350Z 19023G38KT 7000 -RA BKN012 OVC022 10/08 Q0985 NOSIG RMK GRN GRN -RA 26.5mph 43.7mph 10°C 8°C 10.4°C
20/01/21 13:25 EGVO 201325Z 19023G36KT 6000 -RA BKN012 BKN020 10/08 Q0986 NOSIG RMK GRN GRN -RA 26.5mph 41.4mph 10°C 8°C 10.4°C
20/01/21 12:50 EGVO 201250Z 19024G36KT 5000 RA BKN009 BKN016 10/08 Q0986 TEMPO 4000 RA RMK GRN TEMPO GRN RA 27.6mph 41.4mph 10°C 8°C 10.4°C
20/01/21 12:25 EGVO 201225Z 19023G35KT 7000 -RA BKN009 OVC016 09/08 Q0987 NOSIG RMK GRN GRN -RA 26.5mph 40.3mph 9°C 8°C 9.4°C
20/01/21 11:50 EGVO 201150Z 19023KT 5000 -RA BKN009 BKN015 09/08 Q0987 TEMPO 4000 RA RMK GRN TEMPO GRN -RA 26.5mph 9°C 8°C 9.4°C
20/01/21 11:31 EGVO 201131Z 18021G34KT 4000 RA BKN007 09/08 Q0988 TEMPO BKN005 RMK GRN TEMPO YLO1 RA 24.2mph 39.1mph 9°C 8°C 9.4°C
20/01/21 10:50 EGVO 201050Z 19022G33KT 6000 -RA BKN008 BKN015 09/08 Q0988 RMK GRN -RA 25.3mph 38.0mph 9°C 8°C 9.4°C
20/01/21 09:50 EGVO 200950Z 19022KT 8000 -RA BKN009 OVC016 10/08 Q0989 RMK GRN -RA 25.3mph 10°C 8°C 10.4°C
20/01/21 08:50 EGVO 200850Z 19019G30KT 5000 -RA BKN007 OVC011 09/08 Q0990 RMK GRN -RA 21.9mph 34.5mph 9°C 8°C 9.4°C
20/01/21 07:50 EGVO 200750Z 19019KT 7000 -RA BKN009 BKN017 09/08 Q0990 RMK GRN -RA 21.9mph 9°C 8°C 9.4°C
20/01/21 06:50 EGVO 200650Z 19019G30KT 8000 RADZ BKN008 BKN010 OVC012 10/08 Q0991 RMK GRN RA DZ 21.9mph 34.5mph 10°C 8°C 10.4°C
20/01/21 05:50 EGVO 200550Z AUTO 20022KT 3700 -DZ OVC005/// 09/09 Q0992 -DZ 25.3mph 9°C 9°C 9.8°C
20/01/21 04:50 EGVO 200450Z AUTO 20020KT 2400 RADZ BKN006/// BKN013/// 10/09 Q0992 RA DZ 23.0mph 10°C 9°C 10.8°C
20/01/21 03:50 EGVO 200350Z AUTO 20022G33KT 2400 RA BKN006/// 10/09 Q0993 RA 25.3mph 38.0mph 10°C 9°C 10.8°C
20/01/21 02:50 EGVO 200250Z AUTO 20020G32KT 2900 -RA BKN006/// 10/09 Q0993 -RA 23.0mph 36.8mph 10°C 9°C 10.8°C
20/01/21 01:50 EGVO 200150Z AUTO 20019KT 3000 -RA OVC006/// 10/09 Q0994 -RA 21.9mph 10°C 9°C 10.8°C
20/01/21 00:50 EGVO 200050Z AUTO 20020KT 3400 -RA BKN006/// BKN014/// 10/09 Q0995 -RA 23.0mph 10°C 9°C 10.8°C
19/01/21 23:50 EGVO 192350Z AUTO 20019KT 2700 -RA BKN006/// SCT014/// 10/09 Q0996 -RA 21.9mph 10°C 9°C 10.8°C
19/01/21 22:50 EGVO 192250Z AUTO 20022KT 2500 -DZ BKN006/// 10/09 Q0996 -DZ 25.3mph 10°C 9°C 10.8°C
19/01/21 22:20 EGVO 192220Z 20021G36KT 4000 -DZ BKN006 BKN007 OVC008 10/09 Q0997 NOSIG RMK YLO1 YLO1 -DZ 24.2mph 41.4mph 10°C 9°C 10.8°C
19/01/21 21:50 EGVO 192150Z 20022KT 4000 -DZ BKN006 BKN007 OVC012 09/09 Q0997 TEMPO 3000 RADZ SCT004 RMK YLO1 TEMPO YLO2 -DZ 25.3mph 9°C 9°C 9.8°C
19/01/21 21:19 EGVO 192119Z 20021KT 4000 -DZ BKN007 BKN008 OVC014 10/09 Q0997 TEMPO 3000 RADZ SCT004 RMK GRN TEMPO YLO2 -DZ 24.2mph 10°C 9°C 10.8°C
19/01/21 20:50 EGVO 192050Z 20021KT 3700 -DZ SCT007 BKN008 OVC012 09/08 Q0998 TEMPO 3000 RADZ SCT004 BKN008 RMK GRN TEMPO YLO2 -DZ 24.2mph 9°C 8°C 9.4°C
19/01/21 20:20 EGVO 192020Z 20022KT 4000 -DZ BKN007 BKN009 OVC013 09/08 Q0998 TEMPO 3000 RADZ SCT004 BKN008 RMK GRN TEMPO YLO2 -DZ 25.3mph 9°C 8°C 9.4°C
19/01/21 19:50 EGVO 191950Z 20022KT 4500 -DZ BKN007 BKN008 OVC012 09/08 Q0999 TEMPO 3000 RADZ SCT004 BKN008 RMK GRN TEMPO YLO2 -DZ 25.3mph 9°C 8°C 9.4°C
19/01/21 19:20 EGVO 191920Z 20022G33KT 3500 -DZ BKN007 BKN008 OVC014 09/08 Q0999 TEMPO 5000 -RADZ BKN010 RMK YLO1 TEMPO GRN -DZ 25.3mph 38.0mph 9°C 8°C 9.4°C
19/01/21 18:50 EGVO 191850Z 20019KT 5000 -RADZ BKN007 BKN015 09/08 Q0999 TEMPO 4000 RADZ RMK GRN TEMPO GRN -RA -DZ 21.9mph 9°C 8°C 9.4°C
19/01/21 18:19 EGVO 191819Z 20019G30KT 4000 -RA OVC007 09/08 Q1000 TEMPO 6000 -RA RMK GRN TEMPO GRN -RA 21.9mph 34.5mph 9°C 8°C 9.4°C
19/01/21 17:50 EGVO 191750Z 20020G33KT 5000 -RA BKN009 BKN016 09/08 Q1000 TEMPO 4000 -RADZ SCT006 RMK GRN TEMPO YLO1 -RA 23.0mph 38.0mph 9°C 8°C 9.4°C
19/01/21 17:20 EGVO 191720Z 20022KT 9999 OVC010 10/08 Q1001 TEMPO 6000 -RADZ RMK GRN TEMPO GRN 25.3mph 10°C 8°C 10.4°C
19/01/21 16:50 EGVO 191650Z 21020KT 9999 BKN008 SCT015 09/08 Q1001 TEMPO 6000 -RADZ RMK GRN TEMPO GRN 23.0mph 9°C 8°C 9.4°C
19/01/21 16:20 EGVO 191620Z 21019G29KT 6000 -RADZ BKN007 BKN015 09/08 Q1002 TEMPO 9999 NSW RMK GRN TEMPO GRN -RA -DZ 21.9mph 33.4mph 9°C 8°C 9.4°C
19/01/21 15:50 EGVO 191550Z 21018KT 5000 RADZ OVC007 09/08 Q1002 TEMPO 9999 NSW RMK GRN TEMPO GRN RA DZ 20.7mph 9°C 8°C 9.4°C
19/01/21 15:35 EGVO 191535Z 21020KT 5000 -RADZ BKN009 BKN016 09/08 Q1002 TEMPO 9999 NSW RMK GRN TEMPO GRN -RA -DZ 23.0mph 9°C 8°C 9.4°C
19/01/21 14:50 EGVO 191450Z 21019G29KT 9999 -RADZ BKN012 SCT020 09/07 Q1003 TEMPO 6000 -RADZ RMK GRN TEMPO GRN -RA -DZ 21.9mph 33.4mph 9°C 7°C 9.0°C
19/01/21 14:20 EGVO 191420Z 21017KT 9999 BKN009 SCT025 09/08 Q1003 TEMPO 6000 -RADZ RMK GRN TEMPO GRN 19.6mph 9°C 8°C 9.4°C
19/01/21 13:50 EGVO 191350Z 20016KT 5000 -RADZ BKN009 BKN023 09/08 Q1004 TEMPO 9999 NSW RMK GRN TEMPO GRN -RA -DZ 18.4mph 9°C 8°C 9.4°C
19/01/21 13:36 EGVO 191336Z 21016KT 7000 -RADZ BKN010 SCT020 10/07 Q1004 TEMPO 9999 NSW RMK GRN TEMPO GRN -RA -DZ 18.4mph 10°C 7°C 10.0°C
19/01/21 12:50 EGVO 191250Z 21017KT 9999 -RADZ BKN010 BKN015 09/08 Q1005 TEMPO 6000 -RADZ RMK GRN TEMPO GRN -RA -DZ 19.6mph 9°C 8°C 9.4°C
19/01/21 12:20 EGVO 191220Z 22019KT 8000 -RADZ SCT010 BKN022 09/08 Q1005 TEMPO FEW010 BKN022 RMK GRN TEMPO WHT -RA -DZ 21.9mph 9°C 8°C 9.4°C
19/01/21 11:50 EGVO 191150Z 22019KT 9999 FEW015 BKN030 10/07 Q1005 TEMPO SCT015 RMK BLU TEMPO WHT 21.9mph 10°C 7°C 10.0°C
19/01/21 10:50 EGVO 191050Z 21020KT 9999 BKN007 SCT020 10/08 Q1006 RMK GRN 23.0mph 10°C 8°C 10.4°C
19/01/21 09:50 EGVO 190950Z 23015KT 9999 BKN007 SCT015 10/09 Q1006 RMK GRN 17.3mph 10°C 9°C 10.8°C
19/01/21 08:50 EGVO 190850Z 23016KT 8000 -RADZ SCT008 BKN022 10/09 Q1007 RMK GRN -RA -DZ 18.4mph 10°C 9°C 10.8°C
19/01/21 07:50 EGVO 190750Z 23017KT 9999 BKN010 BKN020 11/09 Q1006 RMK GRN 19.6mph 11°C 9°C 11.8°C
19/01/21 06:50 EGVO 190650Z 23018KT 9999 -DZ SCT010 BKN015 OVC020 11/09 Q1006 RMK GRN -DZ 20.7mph 11°C 9°C 11.8°C
19/01/21 05:50 EGVO 190550Z 23019KT 9999 BKN011 BKN019 11/09 Q1006 RMK GRN 21.9mph 11°C 9°C 11.8°C
19/01/21 04:50 EGVO 190450Z AUTO 23020KT 9999 BKN007/// BKN014/// 11/10 Q1006 RERA 23.0mph 11°C 10°C 12.3°C
19/01/21 03:50 EGVO 190350Z AUTO 22018KT 9999 -RA SCT006/// BKN070/// 11/10 Q1006 -RA 20.7mph 11°C 10°C 12.3°C
19/01/21 02:50 EGVO 190250Z AUTO 21017KT 9999 -RA BKN006/// SCT014/// 10/09 Q1007 -RA 19.6mph 10°C 9°C 10.8°C
19/01/21 01:50 EGVO 190150Z AUTO 21020KT 3600 RA BKN006/// SCT014/// BKN023/// 10/09 Q1008 RA 23.0mph 10°C 9°C 10.8°C
19/01/21 00:50 EGVO 190050Z AUTO 20022KT 3300 RADZ BKN006/// BKN014/// 10/09 Q1009 RA DZ 25.3mph 10°C 9°C 10.8°C
18/01/21 23:50 EGVO 182350Z AUTO 21019G29KT 2400 -DZ BKN005/// 09/09 Q1010 -DZ 21.9mph 33.4mph 9°C 9°C 9.8°C
18/01/21 22:50 EGVO 182250Z AUTO 20018KT 3200 -RADZ OVC004/// 09/08 Q1012 -RA -DZ 20.7mph 9°C 8°C 9.4°C
18/01/21 22:01 EGVO 182201Z 20016KT 3700 -DZ BKN004 BKN005 OVC007 08/08 Q1013 TEMPO 9999 NSW BKN008 RMK YLO2 TEMPO GRN -DZ 18.4mph 8°C 8°C 8.4°C
18/01/21 21:37 EGVO 182137Z 19016G27KT 3500 -DZ BKN005 BKN006 OVC007 08/07 Q1013 TEMPO 9999 NSW BKN008 RMK YLO1 TEMPO GRN -DZ 18.4mph 31.1mph 8°C 7°C 8.0°C
18/01/21 20:50 EGVO 182050Z 19017KT 4000 -DZ FEW005 OVC007 08/07 Q1014 TEMPO BKN005 RMK GRN TEMPO YLO1 -DZ 19.6mph 8°C 7°C 8.0°C
18/01/21 20:45 EGVO 182045Z 19016KT 9999 -DZ FEW005 OVC007 08/07 Q1014 TEMPO 4000 RA BKN005 RMK GRN TEMPO YLO1 -DZ 18.4mph 8°C 7°C 8.0°C
18/01/21 19:50 EGVO 181950Z 19014KT 3200 -DZ SCT005 BKN007 OVC008 07/07 Q1015 TEMPO 4000 BKN007 RMK YLO1 TEMPO GRN -DZ 16.1mph 7°C 7°C 7.0°C
18/01/21 19:32 EGVO 181932Z 19014KT 3500 -DZ FEW005 BKN006 BKN007 07/07 Q1016 TEMPO 4000 BKN007 RMK YLO1 TEMPO GRN -DZ 16.1mph 7°C 7°C 7.0°C
18/01/21 18:50 EGVO 181850Z 19013KT 7000 -RA SCT006 BKN008 07/06 Q1017 TEMPO BKN007 RMK YLO1 TEMPO GRN -RA 15.0mph 7°C 6°C 6.6°C
18/01/21 18:13 EGVO 181813Z 20014KT 9000 -RA SCT008 SCT040 BKN060 07/06 Q1017 TEMPO 6000 -RADZ SCT005 BKN008 RMK GRN TEMPO YLO1 -RA 16.1mph 7°C 6°C 6.6°C
18/01/21 17:20 EGVO 181720Z 20011KT 9999 FEW014 BKN070 BKN120 07/05 Q1018 BECMG -RA BKN008 RMK BLU BECMG GRN 12.7mph 7°C 5°C 6.3°C
18/01/21 16:50 EGVO 181650Z 21011KT 9999 FEW018 BKN060 BKN120 07/05 Q1018 BECMG -RA BKN008 RMK BLU BECMG GRN 12.7mph 7°C 5°C 6.3°C
18/01/21 16:21 EGVO 181621Z 21011KT 9999 FEW018 BKN120 07/04 Q1018 BECMG -RA BKN008 RMK BLU BECMG GRN 12.7mph 7°C 4°C 6.0°C
18/01/21 15:50 EGVO 181550Z 20009KT 9999 SCT018 SCT030 BKN120 07/04 Q1019 TEMPO FEW018 SCT030 RMK WHT TEMPO BLU 10.4mph 7°C 4°C 6.0°C
18/01/21 15:21 EGVO 181521Z 20009KT 9999 BKN030 BKN120 07/04 Q1019 TEMPO SCT020 RMK BLU TEMPO WHT 10.4mph 7°C 4°C 6.0°C
18/01/21 14:50 EGVO 181450Z 21011KT 9999 BKN033 BKN120 07/04 Q1019 NOSIG RMK BLU BLU 12.7mph 7°C 4°C 6.0°C
18/01/21 14:20 EGVO 181420Z 22011KT 9999 FEW040 BKN120 07/04 Q1020 NOSIG RMK BLU BLU 12.7mph 7°C 4°C 6.0°C
18/01/21 12:50 EGVO 181250Z 23007KT 9999 FEW018 BKN038 07/04 Q1021 NOSIG RMK BLU BLU 8.1mph 7°C 4°C 6.0°C
18/01/21 12:20 EGVO 181220Z 23009KT 9999 BKN039 06/04 Q1022 NOSIG RMK BLU BLU 10.4mph 6°C 4°C 5.0°C
18/01/21 11:50 EGVO 181150Z 23008KT 9999 BKN038 06/03 Q1022 NOSIG RMK BLU BLU 9.2mph 6°C 3°C 4.7°C
18/01/21 11:20 EGVO 181120Z 23010KT 9999 BKN035 05/03 Q1023 NOSIG RMK BLU BLU 11.5mph 5°C 3°C 3.7°C
18/01/21 10:50 EGVO 181050Z 23009KT 9999 FEW020 BKN027 05/03 Q1023 NOSIG RMK BLU BLU 10.4mph 5°C 3°C 3.7°C
18/01/21 09:50 EGVO 180950Z 23007KT 9999 BKN020 BKN035 04/03 Q1023 RMK WHT 8.1mph 4°C 3°C 2.7°C
18/01/21 08:50 EGVO 180850Z 23009KT 9999 FEW019 BKN035 03/02 Q1023 RMK BLU 10.4mph 3°C 2°C 1.4°C
18/01/21 07:50 EGVO 180750Z 23009KT 9999 FEW019 BKN030 03/02 Q1023 RMK BLU 10.4mph 3°C 2°C 1.4°C
18/01/21 06:50 EGVO 180650Z AUTO 22007KT 9999 FEW044/// 03/02 Q1023 8.1mph 3°C 2°C 1.4°C
18/01/21 05:50 EGVO 180550Z AUTO 23009KT 9999 FEW031/// 03/02 Q1023 10.4mph 3°C 2°C 1.4°C
18/01/21 04:50 EGVO 180450Z AUTO 24010KT 9999 NCD 03/02 Q1023 11.5mph 3°C 2°C 1.4°C
18/01/21 03:50 EGVO 180350Z AUTO 24011KT 9999 NCD 03/02 Q1024 12.7mph 3°C 2°C 1.4°C
18/01/21 02:50 EGVO 180250Z AUTO 23010KT 9999 NCD 03/02 Q1024 11.5mph 3°C 2°C 1.4°C
18/01/21 01:50 EGVO 180150Z AUTO 23009KT 9999 FEW013/// 04/03 Q1025 10.4mph 4°C 3°C 2.7°C
18/01/21 00:50 EGVO 180050Z AUTO 23007KT 9999 BKN090/// 04/03 Q1025 8.1mph 4°C 3°C 2.7°C
17/01/21 23:50 EGVO 172350Z AUTO 23007KT 9999 BKN090/// 03/02 Q1026 8.1mph 3°C 2°C 1.4°C
17/01/21 22:50 EGVO 172250Z AUTO 22006KT 9999 FEW090/// 03/01 Q1026 6.9mph 3°C 1°C 1.1°C
17/01/21 21:50 EGVO 172150Z AUTO 21006KT 9999 SCT080/// 03/01 Q1026 6.9mph 3°C 1°C 1.1°C